Terminal Aerodrome Forecast
Issued by NWS

Home | Current Version | Previous Version | Text Only | Print | Product List | Glossary On
Versions: 1 2 3 4 5 6 7 8 9 10 11 12 13 14 15 16 17 18 19 20 21 22 23 24 25 26 27 28 29 30 31 32 33
000
FTUS44 KOUN 281739
TAFLAW
TAF
KLAW 281739Z 2818/0118 10008KT 3SM BR OVC012
      TEMPO 2818/2821 2SM -FZDZ BR OVC007
     FM010400 08006KT 1/2SM -FZDZ FZFG OVC003=

USA.gov is the U.S. government's official web portal to all federal, state and local government web resources and services.